Terminal Aerodrome Forecast
Issued by NWS Tampa Bay Area, FL

Home | Current Version | Previous Version | Text Only | Print | Product List | Glossary On
Versions: 1 2 3 4 5 6 7 8 9 10 11 12 13 14 15 16
679
FTUS42 KTBW 011722
TAFFMY
TAF
KFMY 011722Z 0118/0218 15009KT P6SM SCT045
     FM012000 19008KT P6SM VCTS SCT050CB SCT250
     FM020200 11005KT P6SM FEW050 SCT250
     FM020900 11005KT P6SM SCT015 SCT250
     FM021400 16009KT P6SM SCT035 SCT250=

USA.gov is the U.S. government's official web portal to all federal, state and local government web resources and services.